sensor_id;sensor_type;location;lat;lon;timestamp;P1;durP1;ratioP1;P2;durP2;ratioP2
5702;SDS011;2876;51.738;10.050;2023-12-20T00:03:25;4.30;;;3.90;;
5702;SDS011;2876;51.738;10.050;2023-12-20T00:09:27;4.73;;;4.17;;
5702;SDS011;2876;51.738;10.050;2023-12-20T00:15:29;4.73;;;4.30;;
5702;SDS011;2876;51.738;10.050;2023-12-20T00:21:31;6.50;;;5.10;;
5702;SDS011;2876;51.738;10.050;2023-12-20T00:27:33;4.87;;;4.37;;
5702;SDS011;2876;51.738;10.050;2023-12-20T00:33:35;4.67;;;4.23;;
5702;SDS011;2876;51.738;10.050;2023-12-20T00:39:38;6.93;;;5.50;;
5702;SDS011;2876;51.738;10.050;2023-12-20T00:45:40;6.60;;;5.40;;
5702;SDS011;2876;51.738;10.050;2023-12-20T00:51:42;6.80;;;5.63;;
5702;SDS011;2876;51.738;10.050;2023-12-20T00:57:44;6.20;;;5.60;;
5702;SDS011;2876;51.738;10.050;2023-12-20T01:03:47;8.37;;;5.90;;
5702;SDS011;2876;51.738;10.050;2023-12-20T01:09:49;6.63;;;5.93;;
5702;SDS011;2876;51.738;10.050;2023-12-20T01:15:51;6.67;;;5.47;;
5702;SDS011;2876;51.738;10.050;2023-12-20T01:21:53;8.47;;;6.37;;
5702;SDS011;2876;51.738;10.050;2023-12-20T01:27:55;7.33;;;6.43;;
5702;SDS011;2876;51.738;10.050;2023-12-20T01:33:57;7.70;;;6.37;;
5702;SDS011;2876;51.738;10.050;2023-12-20T01:39:59;7.33;;;5.37;;
5702;SDS011;2876;51.738;10.050;2023-12-20T01:46:01;9.00;;;6.83;;
5702;SDS011;2876;51.738;10.050;2023-12-20T01:52:04;7.30;;;6.50;;
5702;SDS011;2876;51.738;10.050;2023-12-20T01:58:08;9.90;;;7.10;;
5702;SDS011;2876;51.738;10.050;2023-12-20T02:04:12;6.87;;;6.17;;
5702;SDS011;2876;51.738;10.050;2023-12-20T02:10:14;8.97;;;6.90;;
5702;SDS011;2876;51.738;10.050;2023-12-20T02:16:17;9.00;;;5.97;;
5702;SDS011;2876;51.738;10.050;2023-12-20T02:22:20;7.70;;;6.47;;
5702;SDS011;2876;51.738;10.050;2023-12-20T02:28:22;7.93;;;5.90;;
5702;SDS011;2876;51.738;10.050;2023-12-20T02:34:25;8.27;;;6.27;;
5702;SDS011;2876;51.738;10.050;2023-12-20T02:40:27;6.67;;;5.60;;
5702;SDS011;2876;51.738;10.050;2023-12-20T02:46:29;8.77;;;5.70;;
5702;SDS011;2876;51.738;10.050;2023-12-20T02:52:31;5.47;;;4.90;;
5702;SDS011;2876;51.738;10.050;2023-12-20T02:58:33;6.67;;;5.43;;
5702;SDS011;2876;51.738;10.050;2023-12-20T03:04:35;5.90;;;4.13;;
5702;SDS011;2876;51.738;10.050;2023-12-20T03:10:37;7.63;;;3.93;;
5702;SDS011;2876;51.738;10.050;2023-12-20T03:16:39;4.70;;;4.20;;
5702;SDS011;2876;51.738;10.050;2023-12-20T03:22:47;6.20;;;3.20;;
5702;SDS011;2876;51.738;10.050;2023-12-20T03:28:49;7.33;;;3.50;;
5702;SDS011;2876;51.738;10.050;2023-12-20T03:34:51;6.33;;;3.03;;
5702;SDS011;2876;51.738;10.050;2023-12-20T03:40:54;15.47;;;2.47;;
5702;SDS011;2876;51.738;10.050;2023-12-20T03:46:55;5.80;;;2.57;;
5702;SDS011;2876;51.738;10.050;2023-12-20T03:52:57;6.83;;;2.20;;
5702;SDS011;2876;51.738;10.050;2023-12-20T03:58:59;5.87;;;2.73;;
5702;SDS011;2876;51.738;10.050;2023-12-20T04:05:01;9.43;;;3.23;;
5702;SDS011;2876;51.738;10.050;2023-12-20T04:11:03;6.47;;;2.97;;
5702;SDS011;2876;51.738;10.050;2023-12-20T04:17:05;3.10;;;1.87;;
5702;SDS011;2876;51.738;10.050;2023-12-20T04:23:08;3.43;;;1.97;;
5702;SDS011;2876;51.738;10.050;2023-12-20T04:29:10;2.30;;;1.20;;
5702;SDS011;2876;51.738;10.050;2023-12-20T04:35:12;4.13;;;1.70;;
5702;SDS011;2876;51.738;10.050;2023-12-20T04:41:14;3.27;;;1.23;;
5702;SDS011;2876;51.738;10.050;2023-12-20T04:47:17;4.33;;;1.60;;
5702;SDS011;2876;51.738;10.050;2023-12-20T04:53:19;3.90;;;1.47;;
5702;SDS011;2876;51.738;10.050;2023-12-20T04:59:21;4.90;;;1.20;;
5702;SDS011;2876;51.738;10.050;2023-12-20T05:05:23;5.50;;;1.67;;
5702;SDS011;2876;51.738;10.050;2023-12-20T05:11:25;5.23;;;1.20;;
5702;SDS011;2876;51.738;10.050;2023-12-20T05:17:27;5.30;;;1.87;;
5702;SDS011;2876;51.738;10.050;2023-12-20T05:23:29;9.50;;;1.90;;
5702;SDS011;2876;51.738;10.050;2023-12-20T05:29:31;12.60;;;1.90;;
5702;SDS011;2876;51.738;10.050;2023-12-20T05:35:33;3.67;;;1.67;;
5702;SDS011;2876;51.738;10.050;2023-12-20T05:41:35;7.70;;;2.30;;
5702;SDS011;2876;51.738;10.050;2023-12-20T05:47:37;3.40;;;1.80;;
5702;SDS011;2876;51.738;10.050;2023-12-20T05:53:39;7.50;;;2.07;;
5702;SDS011;2876;51.738;10.050;2023-12-20T05:59:41;4.03;;;2.17;;
5702;SDS011;2876;51.738;10.050;2023-12-20T06:05:43;3.90;;;2.20;;
5702;SDS011;2876;51.738;10.050;2023-12-20T06:11:45;7.77;;;2.83;;
5702;SDS011;2876;51.738;10.050;2023-12-20T06:17:47;10.17;;;2.60;;
5702;SDS011;2876;51.738;10.050;2023-12-20T06:23:49;6.73;;;2.60;;
5702;SDS011;2876;51.738;10.050;2023-12-20T06:29:51;8.60;;;2.73;;
5702;SDS011;2876;51.738;10.050;2023-12-20T06:35:53;7.13;;;2.23;;
5702;SDS011;2876;51.738;10.050;2023-12-20T06:41:55;7.00;;;2.80;;
5702;SDS011;2876;51.738;10.050;2023-12-20T06:47:57;7.53;;;2.47;;
5702;SDS011;2876;51.738;10.050;2023-12-20T06:53:59;9.23;;;3.10;;
5702;SDS011;2876;51.738;10.050;2023-12-20T07:00:03;11.20;;;3.00;;
5702;SDS011;2876;51.738;10.050;2023-12-20T07:06:07;13.13;;;3.33;;
5702;SDS011;2876;51.738;10.050;2023-12-20T07:12:09;8.13;;;2.77;;
5702;SDS011;2876;51.738;10.050;2023-12-20T07:18:11;7.17;;;3.07;;
5702;SDS011;2876;51.738;10.050;2023-12-20T07:24:13;20.50;;;3.67;;
5702;SDS011;2876;51.738;10.050;2023-12-20T07:30:15;14.73;;;3.27;;
5702;SDS011;2876;51.738;10.050;2023-12-20T07:36:19;10.80;;;3.00;;
5702;SDS011;2876;51.738;10.050;2023-12-20T07:42:21;12.93;;;3.67;;
5702;SDS011;2876;51.738;10.050;2023-12-20T07:48:23;11.63;;;4.10;;
5702;SDS011;2876;51.738;10.050;2023-12-20T07:54:25;7.83;;;3.17;;
5702;SDS011;2876;51.738;10.050;2023-12-20T08:00:27;6.77;;;2.17;;
5702;SDS011;2876;51.738;10.050;2023-12-20T08:06:30;8.50;;;2.40;;
5702;SDS011;2876;51.738;10.050;2023-12-20T08:12:32;3.80;;;2.73;;
5702;SDS011;2876;51.738;10.050;2023-12-20T08:18:34;9.93;;;2.70;;
5702;SDS011;2876;51.738;10.050;2023-12-20T08:24:37;8.00;;;2.90;;
5702;SDS011;2876;51.738;10.050;2023-12-20T08:30:39;15.80;;;3.57;;
5702;SDS011;2876;51.738;10.050;2023-12-20T08:36:42;6.60;;;2.90;;
5702;SDS011;2876;51.738;10.050;2023-12-20T08:42:44;8.93;;;3.27;;
5702;SDS011;2876;51.738;10.050;2023-12-20T08:48:45;6.40;;;2.90;;
5702;SDS011;2876;51.738;10.050;2023-12-20T08:54:48;9.00;;;3.73;;
5702;SDS011;2876;51.738;10.050;2023-12-20T09:00:53;17.43;;;5.10;;
5702;SDS011;2876;51.738;10.050;2023-12-20T09:06:55;16.90;;;4.13;;
5702;SDS011;2876;51.738;10.050;2023-12-20T09:12:57;7.70;;;4.13;;
5702;SDS011;2876;51.738;10.050;2023-12-20T09:18:59;7.27;;;3.60;;
5702;SDS011;2876;51.738;10.050;2023-12-20T09:25:01;15.57;;;5.70;;
5702;SDS011;2876;51.738;10.050;2023-12-20T09:31:04;11.10;;;2.97;;
5702;SDS011;2876;51.738;10.050;2023-12-20T09:37:07;11.77;;;3.70;;
5702;SDS011;2876;51.738;10.050;2023-12-20T09:43:14;5.13;;;2.83;;
5702;SDS011;2876;51.738;10.050;2023-12-20T09:49:17;11.50;;;2.90;;
5702;SDS011;2876;51.738;10.050;2023-12-20T09:55:20;12.83;;;3.57;;
5702;SDS011;2876;51.738;10.050;2023-12-20T10:01:23;8.00;;;3.10;;
5702;SDS011;2876;51.738;10.050;2023-12-20T10:07:26;11.47;;;3.87;;
5702;SDS011;2876;51.738;10.050;2023-12-20T10:13:28;5.40;;;2.20;;
5702;SDS011;2876;51.738;10.050;2023-12-20T10:19:31;11.23;;;3.33;;
5702;SDS011;2876;51.738;10.050;2023-12-20T10:25:34;14.30;;;3.57;;
5702;SDS011;2876;51.738;10.050;2023-12-20T10:31:36;12.93;;;3.77;;
5702;SDS011;2876;51.738;10.050;2023-12-20T10:37:40;12.67;;;2.90;;
5702;SDS011;2876;51.738;10.050;2023-12-20T10:43:42;9.27;;;3.20;;
5702;SDS011;2876;51.738;10.050;2023-12-20T10:49:46;8.37;;;3.60;;
5702;SDS011;2876;51.738;10.050;2023-12-20T10:55:48;11.47;;;3.70;;
5702;SDS011;2876;51.738;10.050;2023-12-20T11:01:57;6.67;;;2.57;;
5702;SDS011;2876;51.738;10.050;2023-12-20T11:08:01;18.60;;;3.83;;
5702;SDS011;2876;51.738;10.050;2023-12-20T11:14:23;8.33;;;2.97;;
5702;SDS011;2876;51.738;10.050;2023-12-20T11:20:44;7.60;;;3.57;;
5702;SDS011;2876;51.738;10.050;2023-12-20T11:26:47;12.03;;;2.83;;
5702;SDS011;2876;51.738;10.050;2023-12-20T11:32:52;9.70;;;3.50;;
5702;SDS011;2876;51.738;10.050;2023-12-20T11:38:57;13.80;;;4.17;;
5702;SDS011;2876;51.738;10.050;2023-12-20T11:45:01;4.87;;;2.47;;
5702;SDS011;2876;51.738;10.050;2023-12-20T11:51:11;8.53;;;3.00;;
5702;SDS011;2876;51.738;10.050;2023-12-20T11:57:14;6.27;;;2.37;;
5702;SDS011;2876;51.738;10.050;2023-12-20T12:03:16;12.10;;;3.93;;
5702;SDS011;2876;51.738;10.050;2023-12-20T12:09:18;10.23;;;3.73;;
5702;SDS011;2876;51.738;10.050;2023-12-20T12:15:20;8.47;;;3.90;;
5702;SDS011;2876;51.738;10.050;2023-12-20T12:21:22;6.30;;;3.77;;
5702;SDS011;2876;51.738;10.050;2023-12-20T12:27:33;4.40;;;3.17;;
5702;SDS011;2876;51.738;10.050;2023-12-20T12:33:35;8.30;;;3.40;;
5702;SDS011;2876;51.738;10.050;2023-12-20T12:39:37;5.67;;;2.57;;
5702;SDS011;2876;51.738;10.050;2023-12-20T12:45:40;9.57;;;3.30;;
5702;SDS011;2876;51.738;10.050;2023-12-20T12:51:42;6.43;;;2.93;;
5702;SDS011;2876;51.738;10.050;2023-12-20T12:57:45;6.73;;;3.43;;
5702;SDS011;2876;51.738;10.050;2023-12-20T13:03:47;9.23;;;2.60;;
5702;SDS011;2876;51.738;10.050;2023-12-20T13:09:50;6.40;;;3.10;;
5702;SDS011;2876;51.738;10.050;2023-12-20T13:15:52;8.93;;;3.20;;
5702;SDS011;2876;51.738;10.050;2023-12-20T13:21:56;8.60;;;2.40;;
5702;SDS011;2876;51.738;10.050;2023-12-20T13:27:59;7.70;;;3.20;;
5702;SDS011;2876;51.738;10.050;2023-12-20T13:34:01;5.10;;;3.23;;
5702;SDS011;2876;51.738;10.050;2023-12-20T13:40:03;6.17;;;3.10;;
5702;SDS011;2876;51.738;10.050;2023-12-20T13:46:07;5.30;;;2.80;;
5702;SDS011;2876;51.738;10.050;2023-12-20T13:52:10;5.33;;;2.27;;
5702;SDS011;2876;51.738;10.050;2023-12-20T13:58:12;10.57;;;2.40;;
5702;SDS011;2876;51.738;10.050;2023-12-20T14:04:14;9.20;;;2.83;;
5702;SDS011;2876;51.738;10.050;2023-12-20T14:10:36;7.67;;;3.20;;
5702;SDS011;2876;51.738;10.050;2023-12-20T14:16:39;10.37;;;3.57;;
5702;SDS011;2876;51.738;10.050;2023-12-20T14:22:45;5.63;;;2.93;;
5702;SDS011;2876;51.738;10.050;2023-12-20T14:28:47;9.63;;;4.03;;
5702;SDS011;2876;51.738;10.050;2023-12-20T14:34:49;8.90;;;4.10;;
5702;SDS011;2876;51.738;10.050;2023-12-20T14:40:52;5.50;;;2.80;;
5702;SDS011;2876;51.738;10.050;2023-12-20T14:46:55;8.27;;;3.80;;
5702;SDS011;2876;51.738;10.050;2023-12-20T14:52:57;7.57;;;3.17;;
5702;SDS011;2876;51.738;10.050;2023-12-20T14:58:59;3.17;;;1.40;;
5702;SDS011;2876;51.738;10.050;2023-12-20T15:05:03;2.60;;;1.20;;
5702;SDS011;2876;51.738;10.050;2023-12-20T15:11:06;4.63;;;1.80;;
5702;SDS011;2876;51.738;10.050;2023-12-20T15:17:08;2.97;;;1.67;;
5702;SDS011;2876;51.738;10.050;2023-12-20T15:23:10;1.50;;;1.40;;
5702;SDS011;2876;51.738;10.050;2023-12-20T15:29:12;4.90;;;1.80;;
5702;SDS011;2876;51.738;10.050;2023-12-20T15:35:16;6.67;;;3.10;;
5702;SDS011;2876;51.738;10.050;2023-12-20T15:41:18;15.20;;;4.37;;
5702;SDS011;2876;51.738;10.050;2023-12-20T15:47:24;7.87;;;3.20;;
5702;SDS011;2876;51.738;10.050;2023-12-20T15:53:26;11.70;;;5.33;;
5702;SDS011;2876;51.738;10.050;2023-12-20T15:59:29;10.13;;;3.43;;
5702;SDS011;2876;51.738;10.050;2023-12-20T16:05:31;8.00;;;4.13;;
5702;SDS011;2876;51.738;10.050;2023-12-20T16:11:33;6.13;;;3.50;;
5702;SDS011;2876;51.738;10.050;2023-12-20T16:17:35;3.97;;;2.47;;
5702;SDS011;2876;51.738;10.050;2023-12-20T16:23:38;7.90;;;2.73;;
5702;SDS011;2876;51.738;10.050;2023-12-20T16:29:40;9.90;;;3.47;;
5702;SDS011;2876;51.738;10.050;2023-12-20T16:35:42;5.33;;;2.43;;
5702;SDS011;2876;51.738;10.050;2023-12-20T16:41:44;5.40;;;2.40;;
5702;SDS011;2876;51.738;10.050;2023-12-20T16:47:46;1.83;;;1.70;;
5702;SDS011;2876;51.738;10.050;2023-12-20T16:53:48;7.17;;;2.60;;
5702;SDS011;2876;51.738;10.050;2023-12-20T16:59:50;2.10;;;1.80;;
5702;SDS011;2876;51.738;10.050;2023-12-20T17:05:52;8.30;;;2.90;;
5702;SDS011;2876;51.738;10.050;2023-12-20T17:11:54;6.10;;;3.03;;
5702;SDS011;2876;51.738;10.050;2023-12-20T17:17:56;5.93;;;3.10;;
5702;SDS011;2876;51.738;10.050;2023-12-20T17:23:58;2.90;;;2.63;;
5702;SDS011;2876;51.738;10.050;2023-12-20T17:30:00;2.20;;;1.97;;
5702;SDS011;2876;51.738;10.050;2023-12-20T17:36:03;2.13;;;1.93;;
5702;SDS011;2876;51.738;10.050;2023-12-20T17:42:05;5.23;;;2.57;;
5702;SDS011;2876;51.738;10.050;2023-12-20T17:48:07;5.07;;;3.27;;
5702;SDS011;2876;51.738;10.050;2023-12-20T17:54:09;8.03;;;4.60;;
5702;SDS011;2876;51.738;10.050;2023-12-20T18:00:12;14.40;;;8.57;;
5702;SDS011;2876;51.738;10.050;2023-12-20T18:06:18;5.60;;;3.80;;
5702;SDS011;2876;51.738;10.050;2023-12-20T18:12:20;5.47;;;4.07;;
5702;SDS011;2876;51.738;10.050;2023-12-20T18:18:22;7.00;;;4.10;;
5702;SDS011;2876;51.738;10.050;2023-12-20T18:24:25;11.10;;;5.40;;
5702;SDS011;2876;51.738;10.050;2023-12-20T18:30:27;7.83;;;4.17;;
5702;SDS011;2876;51.738;10.050;2023-12-20T18:36:29;9.57;;;5.90;;
5702;SDS011;2876;51.738;10.050;2023-12-20T18:42:32;7.37;;;4.97;;
5702;SDS011;2876;51.738;10.050;2023-12-20T18:48:34;5.97;;;4.60;;
5702;SDS011;2876;51.738;10.050;2023-12-20T18:54:37;7.10;;;4.17;;
5702;SDS011;2876;51.738;10.050;2023-12-20T19:00:39;6.30;;;3.80;;
5702;SDS011;2876;51.738;10.050;2023-12-20T19:06:41;16.93;;;4.53;;
5702;SDS011;2876;51.738;10.050;2023-12-20T19:12:43;12.33;;;3.70;;
5702;SDS011;2876;51.738;10.050;2023-12-20T19:18:45;8.40;;;4.20;;
5702;SDS011;2876;51.738;10.050;2023-12-20T19:24:47;13.23;;;5.10;;
5702;SDS011;2876;51.738;10.050;2023-12-20T19:30:49;17.43;;;6.90;;
5702;SDS011;2876;51.738;10.050;2023-12-20T19:36:52;14.10;;;5.47;;
5702;SDS011;2876;51.738;10.050;2023-12-20T19:42:54;10.70;;;5.43;;
5702;SDS011;2876;51.738;10.050;2023-12-20T19:48:56;16.80;;;6.73;;
5702;SDS011;2876;51.738;10.050;2023-12-20T19:54:59;17.30;;;6.27;;
5702;SDS011;2876;51.738;10.050;2023-12-20T20:01:01;11.60;;;6.23;;
5702;SDS011;2876;51.738;10.050;2023-12-20T20:07:04;9.23;;;5.50;;
5702;SDS011;2876;51.738;10.050;2023-12-20T20:13:10;10.03;;;5.17;;
5702;SDS011;2876;51.738;10.050;2023-12-20T20:19:13;10.87;;;5.83;;
5702;SDS011;2876;51.738;10.050;2023-12-20T20:25:15;11.53;;;5.17;;
5702;SDS011;2876;51.738;10.050;2023-12-20T20:31:17;5.50;;;3.20;;
5702;SDS011;2876;51.738;10.050;2023-12-20T20:37:19;7.90;;;5.20;;
5702;SDS011;2876;51.738;10.050;2023-12-20T20:43:22;6.43;;;4.60;;
5702;SDS011;2876;51.738;10.050;2023-12-20T20:49:24;6.90;;;4.30;;
5702;SDS011;2876;51.738;10.050;2023-12-20T20:55:26;7.47;;;4.13;;
5702;SDS011;2876;51.738;10.050;2023-12-20T21:01:28;4.40;;;3.83;;
5702;SDS011;2876;51.738;10.050;2023-12-20T21:07:34;7.60;;;5.10;;
5702;SDS011;2876;51.738;10.050;2023-12-20T21:13:36;9.53;;;5.20;;
5702;SDS011;2876;51.738;10.050;2023-12-20T21:19:44;8.50;;;4.60;;
5702;SDS011;2876;51.738;10.050;2023-12-20T21:25:46;12.47;;;4.90;;
5702;SDS011;2876;51.738;10.050;2023-12-20T21:31:48;5.23;;;4.37;;
5702;SDS011;2876;51.738;10.050;2023-12-20T21:37:50;5.57;;;4.50;;
5702;SDS011;2876;51.738;10.050;2023-12-20T21:43:52;8.63;;;4.93;;
5702;SDS011;2876;51.738;10.050;2023-12-20T21:49:54;7.70;;;5.00;;
5702;SDS011;2876;51.738;10.050;2023-12-20T21:55:57;8.67;;;4.87;;
5702;SDS011;2876;51.738;10.050;2023-12-20T22:01:59;6.63;;;5.63;;
5702;SDS011;2876;51.738;10.050;2023-12-20T22:08:01;12.87;;;6.00;;
5702;SDS011;2876;51.738;10.050;2023-12-20T22:14:03;5.57;;;4.80;;
5702;SDS011;2876;51.738;10.050;2023-12-20T22:20:05;8.53;;;4.97;;
5702;SDS011;2876;51.738;10.050;2023-12-20T22:26:08;10.83;;;5.60;;
5702;SDS011;2876;51.738;10.050;2023-12-20T22:32:10;7.37;;;5.40;;
5702;SDS011;2876;51.738;10.050;2023-12-20T22:38:12;10.20;;;5.17;;
5702;SDS011;2876;51.738;10.050;2023-12-20T22:44:15;12.20;;;5.13;;
5702;SDS011;2876;51.738;10.050;2023-12-20T22:50:17;8.70;;;3.90;;
5702;SDS011;2876;51.738;10.050;2023-12-20T22:56:20;5.00;;;3.40;;
5702;SDS011;2876;51.738;10.050;2023-12-20T23:02:21;3.87;;;2.97;;
5702;SDS011;2876;51.738;10.050;2023-12-20T23:08:23;7.43;;;3.00;;
5702;SDS011;2876;51.738;10.050;2023-12-20T23:14:26;3.17;;;2.27;;
5702;SDS011;2876;51.738;10.050;2023-12-20T23:20:28;3.20;;;1.77;;
5702;SDS011;2876;51.738;10.050;2023-12-20T23:26:30;2.83;;;1.60;;
5702;SDS011;2876;51.738;10.050;2023-12-20T23:32:32;3.07;;;1.70;;
5702;SDS011;2876;51.738;10.050;2023-12-20T23:38:35;1.50;;;1.40;;
5702;SDS011;2876;51.738;10.050;2023-12-20T23:44:37;2.37;;;1.57;;
5702;SDS011;2876;51.738;10.050;2023-12-20T23:50:39;1.70;;;1.60;;
5702;SDS011;2876;51.738;10.050;2023-12-20T23:56:41;1.53;;;1.43;;
